createdAt,value
2023-03-06T00:01:24.500Z,10.23
2023-03-06T00:04:12.437Z,9.00
2023-03-06T00:07:00.202Z,9.67
2023-03-06T00:09:48.002Z,10.77
2023-03-06T00:12:35.766Z,9.60
2023-03-06T00:15:24.080Z,10.07
2023-03-06T00:18:11.537Z,9.03
2023-03-06T00:20:59.479Z,8.90
2023-03-06T00:23:46.737Z,8.07
2023-03-06T00:26:36.376Z,8.93
2023-03-06T00:29:24.135Z,7.47
2023-03-06T00:32:11.490Z,7.40
2023-03-06T00:34:59.303Z,7.97
2023-03-06T00:37:46.649Z,7.33
2023-03-06T00:40:34.426Z,8.63
2023-03-06T00:43:21.711Z,7.23
2023-03-06T00:46:09.211Z,7.97
2023-03-06T00:48:56.772Z,7.13
2023-03-06T00:51:44.577Z,8.00
2023-03-06T00:54:31.937Z,7.87
2023-03-06T00:57:19.280Z,7.73
2023-03-06T01:00:07.133Z,8.03
2023-03-06T01:02:54.950Z,7.63
2023-03-06T01:05:42.980Z,8.23
2023-03-06T01:08:30.844Z,7.67
2023-03-06T01:11:18.155Z,6.53
2023-03-06T01:14:06.088Z,7.50
2023-03-06T01:16:55.025Z,7.60
2023-03-06T01:19:42.895Z,8.17
2023-03-06T01:22:31.379Z,7.43
2023-03-06T01:25:19.268Z,5.83
2023-03-06T01:28:07.064Z,7.07
2023-03-06T01:30:54.427Z,7.73
2023-03-06T01:33:42.270Z,7.47
2023-03-06T01:36:29.597Z,7.57
2023-03-06T01:39:17.429Z,7.07
2023-03-06T01:42:05.366Z,8.00
2023-03-06T01:45:05.339Z,8.17
2023-03-06T01:47:52.666Z,7.43
2023-03-06T01:50:40.496Z,7.17
2023-03-06T01:53:27.792Z,7.90
2023-03-06T01:56:16.109Z,7.63
2023-03-06T01:59:03.697Z,7.20
2023-03-06T02:01:51.988Z,7.13
2023-03-06T02:04:40.722Z,7.00
2023-03-06T02:07:28.620Z,6.00
2023-03-06T02:10:16.174Z,7.40
2023-03-06T02:13:04.479Z,7.17
2023-03-06T02:15:51.955Z,8.07
2023-03-06T02:18:41.256Z,7.17
2023-03-06T02:21:31.524Z,7.70
2023-03-06T02:24:22.587Z,7.20
2023-03-06T02:27:12.471Z,6.33
2023-03-06T02:30:00.281Z,8.27
2023-03-06T02:32:47.718Z,7.17
2023-03-06T02:35:36.736Z,7.63
2023-03-06T02:38:32.287Z,7.13
2023-03-06T02:41:20.225Z,6.77
2023-03-06T02:44:07.752Z,8.03
2023-03-06T02:46:55.678Z,8.43
2023-03-06T02:49:43.594Z,7.03
2023-03-06T02:52:31.143Z,7.57
2023-03-06T02:55:18.989Z,8.07
2023-03-06T02:58:06.557Z,8.27
2023-03-06T03:00:54.333Z,7.47
2023-03-06T03:03:42.128Z,6.80
2023-03-06T03:06:29.932Z,6.97
2023-03-06T03:09:17.947Z,7.77
2023-03-06T03:12:06.741Z,7.63
2023-03-06T03:14:54.618Z,7.43
2023-03-06T03:17:42.590Z,7.77
2023-03-06T03:20:30.432Z,6.97
2023-03-06T03:23:17.733Z,7.03
2023-03-06T03:26:12.791Z,6.70
2023-03-06T03:29:00.108Z,7.40
2023-03-06T03:31:48.052Z,7.03
2023-03-06T03:34:35.456Z,6.93
2023-03-06T03:37:23.253Z,7.63
2023-03-06T03:40:11.056Z,7.20
2023-03-06T03:42:58.825Z,7.43
2023-03-06T03:45:46.719Z,6.63
2023-03-06T03:48:34.527Z,6.70
2023-03-06T03:51:21.941Z,7.23
2023-03-06T03:54:09.700Z,8.13
2023-03-06T03:56:57.116Z,6.87
2023-03-06T03:59:44.880Z,5.93
2023-03-06T04:02:32.292Z,7.00
2023-03-06T04:05:20.022Z,6.30
2023-03-06T04:08:07.303Z,6.93
2023-03-06T04:10:55.681Z,7.20
2023-03-06T04:13:42.948Z,7.37
2023-03-06T04:16:30.802Z,6.20
2023-03-06T04:19:18.341Z,6.47
2023-03-06T04:22:06.136Z,6.60
2023-03-06T04:24:53.458Z,6.20
2023-03-06T04:27:41.583Z,7.17
2023-03-06T04:30:29.479Z,6.83
2023-03-06T04:33:17.254Z,6.73
2023-03-06T04:36:04.757Z,7.03
2023-03-06T04:38:52.629Z,6.97
2023-03-06T04:41:40.986Z,6.97
2023-03-06T04:44:28.544Z,6.50
2023-03-06T04:47:18.981Z,6.13
2023-03-06T04:50:07.159Z,6.83
2023-03-06T04:52:55.106Z,5.97
2023-03-06T04:55:42.482Z,6.97
2023-03-06T04:58:30.284Z,6.50
2023-03-06T05:01:17.603Z,6.00
2023-03-06T05:04:05.163Z,6.93
2023-03-06T05:06:52.577Z,6.23
2023-03-06T05:09:39.871Z,6.73
2023-03-06T05:12:27.679Z,6.47
2023-03-06T05:15:15.812Z,8.20
2023-03-06T05:18:03.244Z,6.53
2023-03-06T05:20:50.584Z,6.80
2023-03-06T05:23:38.666Z,6.30
2023-03-06T05:26:26.579Z,6.43
2023-03-06T05:29:14.396Z,7.47
2023-03-06T05:32:01.902Z,7.70
2023-03-06T05:34:50.343Z,6.97
2023-03-06T05:37:37.624Z,7.30
2023-03-06T05:40:25.428Z,6.30
2023-03-06T05:43:13.501Z,6.70
2023-03-06T05:46:03.040Z,7.57
2023-03-06T05:48:53.586Z,7.90
2023-03-06T05:51:41.561Z,6.87
2023-03-06T05:54:28.856Z,7.67
2023-03-06T05:57:16.738Z,7.63
2023-03-06T06:00:04.294Z,8.27
2023-03-06T06:02:52.147Z,7.00
2023-03-06T06:05:40.862Z,7.47
2023-03-06T06:08:28.702Z,6.77
2023-03-06T06:11:16.523Z,7.63
2023-03-06T06:14:03.942Z,7.60
2023-03-06T06:16:52.049Z,7.93
2023-03-06T06:19:40.130Z,7.27
2023-03-06T06:22:27.437Z,7.83
2023-03-06T06:25:14.965Z,8.50
2023-03-06T06:28:03.319Z,7.10
2023-03-06T06:30:50.909Z,8.83
2023-03-06T06:33:38.562Z,9.90
2023-03-06T06:36:26.349Z,9.03
2023-03-06T06:39:15.141Z,8.93
2023-03-06T06:42:28.325Z,8.93
2023-03-06T06:45:11.134Z,7.37
2023-03-06T06:47:58.561Z,7.43
2023-03-06T06:50:46.514Z,8.03
2023-03-06T06:53:33.853Z,7.60
2023-03-06T06:56:21.761Z,7.43
2023-03-06T06:59:16.583Z,8.13
2023-03-06T07:02:05.051Z,8.73
2023-03-06T07:05:03.454Z,7.43
2023-03-06T07:07:51.922Z,9.03
2023-03-06T07:10:39.910Z,8.23
2023-03-06T07:13:27.175Z,8.13
2023-03-06T07:16:15.033Z,8.13
2023-03-06T07:19:02.568Z,8.10
2023-03-06T07:21:50.497Z,7.47
2023-03-06T07:24:37.970Z,8.37
2023-03-06T07:27:26.709Z,8.37
2023-03-06T07:30:14.292Z,9.23
2023-03-06T07:33:02.610Z,8.57
2023-03-06T07:35:50.285Z,8.53
2023-03-06T07:38:38.312Z,8.13
2023-03-06T07:41:25.632Z,9.07
2023-03-06T07:44:13.033Z,7.47
2023-03-06T07:47:00.466Z,8.73
2023-03-06T07:49:48.372Z,8.67
2023-03-06T07:52:35.772Z,9.30
2023-03-06T07:55:24.051Z,9.10
2023-03-06T07:58:11.314Z,9.00
2023-03-06T08:00:59.289Z,9.07
2023-03-06T08:03:47.281Z,9.27
2023-03-06T08:14:11.580Z,8.73
2023-03-06T08:20:01.462Z,9.13
2023-03-06T08:22:49.238Z,9.83
2023-03-06T08:25:37.348Z,9.17
2023-03-06T08:28:24.872Z,8.63
2023-03-06T08:31:14.306Z,9.67
2023-03-06T08:34:03.708Z,8.53
2023-03-06T08:36:51.576Z,9.37
2023-03-06T08:39:39.473Z,8.97
2023-03-06T08:42:26.925Z,9.73
2023-03-06T08:45:14.874Z,9.30
2023-03-06T08:48:02.348Z,8.80
2023-03-06T08:50:50.500Z,8.60
2023-03-06T08:53:43.458Z,8.73
2023-03-06T08:56:32.341Z,8.33
2023-03-06T08:59:20.476Z,9.50
2023-03-06T09:02:12.310Z,8.87
2023-03-06T09:05:01.561Z,8.97
2023-03-06T09:07:49.028Z,9.33
2023-03-06T09:10:36.558Z,9.63
2023-03-06T09:13:24.494Z,9.40
2023-03-06T09:16:12.485Z,9.67
2023-03-06T09:19:00.587Z,9.80
2023-03-06T09:21:49.086Z,9.63
2023-03-06T09:24:36.817Z,9.57
2023-03-06T09:27:24.280Z,9.97
2023-03-06T09:30:12.282Z,9.27
2023-03-06T09:32:59.723Z,9.97
2023-03-06T09:35:51.791Z,8.70
2023-03-06T09:38:39.170Z,9.20
2023-03-06T09:41:29.159Z,9.67
2023-03-06T09:44:19.862Z,8.80
2023-03-06T09:47:26.363Z,8.23
2023-03-06T09:50:35.991Z,9.23
2023-03-06T09:53:36.352Z,9.97
2023-03-06T09:56:24.582Z,8.30
2023-03-06T09:59:18.794Z,8.70
2023-03-06T10:02:15.561Z,8.53
2023-03-06T10:05:05.075Z,9.50
2023-03-06T10:08:01.818Z,9.37
2023-03-06T10:10:52.642Z,8.70
2023-03-06T10:13:44.457Z,8.20
2023-03-06T10:16:33.211Z,8.20
2023-03-06T10:19:21.374Z,8.60
2023-03-06T10:22:24.172Z,8.00
2023-03-06T10:25:24.367Z,8.63
2023-03-06T10:28:19.691Z,8.57
2023-03-06T10:31:17.184Z,8.03
2023-03-06T10:34:24.675Z,7.83
2023-03-06T10:37:23.311Z,7.27
2023-03-06T10:40:18.182Z,8.87
2023-03-06T10:43:12.115Z,7.93
2023-03-06T10:45:59.758Z,7.70
2023-03-06T10:48:58.788Z,8.20
2023-03-06T10:51:59.017Z,8.17
2023-03-06T10:54:48.109Z,7.80
2023-03-06T10:57:35.538Z,8.77
2023-03-06T11:00:25.612Z,7.67
2023-03-06T11:03:25.990Z,7.80
2023-03-06T11:06:15.010Z,7.83
2023-03-06T11:09:17.201Z,8.27
2023-03-06T11:12:23.921Z,9.03
2023-03-06T11:15:12.270Z,8.27
2023-03-06T11:18:04.941Z,8.17
2023-03-06T11:20:54.229Z,7.90
2023-03-06T11:23:48.253Z,8.90
2023-03-06T11:26:42.526Z,7.87
2023-03-06T11:29:45.038Z,7.80
2023-03-06T11:32:38.261Z,7.57
2023-03-06T11:35:28.241Z,8.23
2023-03-06T11:38:20.038Z,9.10
2023-03-06T11:41:14.786Z,8.47
2023-03-06T11:44:11.580Z,7.80
2023-03-06T11:47:18.975Z,8.87
2023-03-06T11:50:25.470Z,8.40
2023-03-06T11:53:16.147Z,8.00
2023-03-06T11:56:03.598Z,7.77
2023-03-06T11:58:57.795Z,8.13
2023-03-06T12:02:03.539Z,7.57
2023-03-06T12:04:54.559Z,9.10
2023-03-06T12:07:48.487Z,7.63
2023-03-06T12:14:01.059Z,8.50
2023-03-06T12:17:03.125Z,8.20
2023-03-06T12:20:10.806Z,8.20
2023-03-06T12:23:15.090Z,8.23
2023-03-06T12:26:29.667Z,7.77
2023-03-06T12:29:27.998Z,7.87
2023-03-06T12:32:21.729Z,7.43
2023-03-06T12:35:38.080Z,7.63
2023-03-06T12:38:38.333Z,7.43
2023-03-06T12:41:41.416Z,7.80
2023-03-06T12:44:34.917Z,7.87
2023-03-06T12:47:24.807Z,8.07
2023-03-06T12:50:26.932Z,8.03
2023-03-06T12:53:16.525Z,8.70
2023-03-06T12:56:04.081Z,8.13
2023-03-06T12:59:04.235Z,8.30
2023-03-06T13:01:59.901Z,8.83
2023-03-06T13:05:01.844Z,8.63
2023-03-06T13:07:52.767Z,7.70
2023-03-06T13:10:42.404Z,8.30
2023-03-06T13:13:34.647Z,8.90
2023-03-06T13:16:23.799Z,8.53
2023-03-06T13:19:12.228Z,8.07
2023-03-06T13:22:01.681Z,9.03
2023-03-06T13:25:09.312Z,9.13
2023-03-06T13:27:56.696Z,8.13
2023-03-06T13:30:46.285Z,8.70
2023-03-06T13:33:35.466Z,10.03
2023-03-06T13:36:27.931Z,8.97
2023-03-06T13:39:15.633Z,8.67
2023-03-06T13:42:03.584Z,10.73
2023-03-06T13:44:51.880Z,9.63
2023-03-06T13:48:10.559Z,9.83
2023-03-06T13:50:49.693Z,8.83
2023-03-06T13:53:46.477Z,7.87
2023-03-06T13:56:33.922Z,8.30
2023-03-06T13:59:21.880Z,8.47
2023-03-06T14:02:14.040Z,8.60
2023-03-06T14:05:05.247Z,9.53
2023-03-06T14:08:04.468Z,8.73
2023-03-06T14:11:15.654Z,9.10
2023-03-06T14:14:03.303Z,8.57
2023-03-06T14:16:51.578Z,8.10
2023-03-06T14:19:39.792Z,7.97
2023-03-06T14:22:27.499Z,8.00
2023-03-06T14:25:17.153Z,8.30
2023-03-06T14:28:13.797Z,8.53
2023-03-06T14:31:02.517Z,8.20
2023-03-06T14:33:50.451Z,7.50
2023-03-06T14:36:45.903Z,8.50
2023-03-06T14:39:41.686Z,8.43
2023-03-06T14:42:30.370Z,8.13
2023-03-06T14:45:19.745Z,8.20
2023-03-06T14:48:07.720Z,9.27
2023-03-06T14:50:57.237Z,8.57
2023-03-06T14:53:45.828Z,7.97
2023-03-06T14:56:35.362Z,7.97
2023-03-06T14:59:26.291Z,7.90
2023-03-06T15:02:18.638Z,8.43
2023-03-06T15:05:08.366Z,8.43
2023-03-06T15:07:59.244Z,8.17
2023-03-06T15:11:03.405Z,8.03
2023-03-06T15:14:05.017Z,7.57
2023-03-06T15:16:52.916Z,7.23
2023-03-06T15:19:41.167Z,7.90
2023-03-06T15:22:28.631Z,7.87
2023-03-06T15:25:20.078Z,9.20
2023-03-06T15:28:25.828Z,7.77
2023-03-06T15:31:21.643Z,8.37
2023-03-06T15:34:12.753Z,7.60
2023-03-06T15:37:00.702Z,8.10
2023-03-06T15:40:02.831Z,8.53
2023-03-06T15:42:50.741Z,7.97
2023-03-06T15:45:38.196Z,7.87
2023-03-06T15:48:26.206Z,7.53
2023-03-06T15:51:14.217Z,7.70
2023-03-06T15:54:11.894Z,7.37
2023-03-06T15:57:00.417Z,7.47
2023-03-06T15:59:47.992Z,6.90
2023-03-06T16:02:35.971Z,7.53
2023-03-06T16:05:24.831Z,7.67
2023-03-06T16:08:14.883Z,7.60
2023-03-06T16:11:02.341Z,6.33
2023-03-06T16:13:49.888Z,7.20
2023-03-06T16:16:39.542Z,7.73
2023-03-06T16:19:27.957Z,7.53
2023-03-06T16:22:16.184Z,7.13
2023-03-06T16:25:03.634Z,7.17
2023-03-06T16:27:58.558Z,8.03
2023-03-06T16:30:46.190Z,6.63
2023-03-06T16:33:34.280Z,7.70
2023-03-06T16:36:23.439Z,7.30
2023-03-06T16:39:14.278Z,8.17
2023-03-06T16:42:01.737Z,7.10
2023-03-06T16:44:49.398Z,6.67
2023-03-06T16:47:37.910Z,6.93
2023-03-06T16:50:32.888Z,7.00
2023-03-06T16:53:20.768Z,7.73
2023-03-06T16:56:10.605Z,7.30
2023-03-06T16:58:58.568Z,7.70
2023-03-06T17:01:45.880Z,7.43
2023-03-06T17:04:33.808Z,7.50
2023-03-06T17:07:21.232Z,7.70
2023-03-06T17:10:10.156Z,8.00
2023-03-06T17:12:57.726Z,7.93
2023-03-06T17:15:59.777Z,8.23
2023-03-06T17:18:47.818Z,8.67
2023-03-06T17:21:37.182Z,9.17
2023-03-06T17:24:25.472Z,7.80
2023-03-06T17:27:12.932Z,6.63
2023-03-06T17:30:00.561Z,8.83
2023-03-06T17:32:47.973Z,8.07
2023-03-06T17:35:37.109Z,7.03
2023-03-06T17:38:24.488Z,7.10
2023-03-06T17:41:12.595Z,6.30
2023-03-06T17:44:02.134Z,8.53
2023-03-06T17:46:50.523Z,8.63
2023-03-06T17:49:37.922Z,7.90
2023-03-06T17:52:26.156Z,9.50
2023-03-06T17:55:13.546Z,8.83
2023-03-06T17:58:01.432Z,10.37
2023-03-06T18:00:49.567Z,9.07
2023-03-06T18:03:38.724Z,8.40
2023-03-06T18:06:30.496Z,8.60
2023-03-06T18:09:17.970Z,8.43
2023-03-06T18:12:06.005Z,9.50
2023-03-06T18:14:53.941Z,8.37
2023-03-06T18:17:41.353Z,8.57
2023-03-06T18:20:29.369Z,7.80
2023-03-06T18:23:16.577Z,9.13
2023-03-06T18:26:21.412Z,8.10
2023-03-06T18:29:09.035Z,7.70
2023-03-06T18:31:58.786Z,8.13
2023-03-06T18:34:46.374Z,8.10
2023-03-06T18:37:34.329Z,7.60
2023-03-06T18:40:24.522Z,7.90
2023-03-06T18:43:12.273Z,8.30
2023-03-06T18:45:59.773Z,8.20
2023-03-06T18:48:47.691Z,8.10
2023-03-06T18:51:35.452Z,8.03
2023-03-06T18:54:24.358Z,8.30
2023-03-06T18:57:11.781Z,8.13
2023-03-06T18:59:59.714Z,7.87
2023-03-06T19:02:47.133Z,7.47
2023-03-06T19:05:34.643Z,7.40
2023-03-06T19:08:22.328Z,7.60
2023-03-06T19:11:11.676Z,7.20
2023-03-06T19:13:59.687Z,7.47
2023-03-06T19:16:47.276Z,7.73
2023-03-06T19:19:35.091Z,7.43
2023-03-06T19:22:23.521Z,6.63
2023-03-06T19:25:11.019Z,7.40
2023-03-06T19:27:58.474Z,7.50
2023-03-06T19:30:46.178Z,7.33
2023-03-06T19:33:37.948Z,6.47
2023-03-06T19:36:29.400Z,6.40
2023-03-06T19:39:17.734Z,6.27
2023-03-06T19:42:05.024Z,6.30
2023-03-06T19:44:52.910Z,7.07
2023-03-06T19:47:40.457Z,6.77
2023-03-06T19:50:30.070Z,7.40
2023-03-06T19:53:17.580Z,7.57
2023-03-06T19:56:06.785Z,6.87
2023-03-06T19:58:54.559Z,7.43
2023-03-06T20:01:41.953Z,6.40
2023-03-06T20:04:33.019Z,7.23
2023-03-06T20:07:20.472Z,6.80
2023-03-06T20:10:08.116Z,6.40
2023-03-06T20:12:55.622Z,7.33
2023-03-06T20:15:43.497Z,7.50
2023-03-06T20:18:30.962Z,6.63
2023-03-06T20:21:19.896Z,6.43
2023-03-06T20:24:08.152Z,6.57
2023-03-06T20:26:58.214Z,6.40
2023-03-06T20:29:45.829Z,5.93
2023-03-06T20:32:33.465Z,6.67
2023-03-06T20:35:21.307Z,6.63
2023-03-06T20:38:09.515Z,6.40
2023-03-06T20:40:57.876Z,6.97
2023-03-06T20:43:46.186Z,6.60
2023-03-06T20:46:33.800Z,6.90
2023-03-06T20:49:24.341Z,6.03
2023-03-06T20:52:12.508Z,7.27
2023-03-06T20:54:59.759Z,6.90
2023-03-06T20:57:49.891Z,6.00
2023-03-06T21:00:37.395Z,6.43
2023-03-06T21:03:25.608Z,6.67
2023-03-06T21:06:13.588Z,6.47
2023-03-06T21:09:01.617Z,6.07
2023-03-06T21:11:49.922Z,6.73
2023-03-06T21:14:37.400Z,7.43
2023-03-06T21:17:25.958Z,7.23
2023-03-06T21:20:13.461Z,6.77
2023-03-06T21:23:04.049Z,6.10
2023-03-06T21:25:52.832Z,6.73
2023-03-06T21:28:40.828Z,7.07
2023-03-06T21:31:28.879Z,6.20
2023-03-06T21:34:16.450Z,7.20
2023-03-06T21:37:04.007Z,7.10
2023-03-06T21:39:52.329Z,6.57
2023-03-06T21:42:39.770Z,7.67
2023-03-06T21:45:30.680Z,6.80
2023-03-06T21:48:18.027Z,7.00
2023-03-06T21:51:06.796Z,6.97
2023-03-06T21:53:54.850Z,7.33
2023-03-06T21:56:42.762Z,6.87
2023-03-06T21:59:30.232Z,6.83
2023-03-06T22:02:18.178Z,7.10
2023-03-06T22:05:06.165Z,7.97
2023-03-06T22:07:53.608Z,7.20
2023-03-06T22:10:42.402Z,7.67
2023-03-06T22:13:30.396Z,7.57
2023-03-06T22:16:18.409Z,6.90
2023-03-06T22:19:06.322Z,7.30
2023-03-06T22:21:54.270Z,7.23
2023-03-06T22:24:41.570Z,7.50
2023-03-06T22:27:30.455Z,7.03
2023-03-06T22:30:18.567Z,7.63
2023-03-06T22:33:06.030Z,7.13
2023-03-06T22:35:53.937Z,8.37
2023-03-06T22:38:43.210Z,6.37
2023-03-06T22:41:30.924Z,6.93
2023-03-06T22:44:20.060Z,7.37
2023-03-06T22:47:08.279Z,7.33
2023-03-06T22:49:55.681Z,6.57
2023-03-06T22:52:43.186Z,7.40
2023-03-06T22:55:31.076Z,7.60
2023-03-06T22:58:18.604Z,8.30
2023-03-06T23:01:10.433Z,7.60
2023-03-06T23:03:59.691Z,7.80
2023-03-06T23:06:47.613Z,7.67
2023-03-06T23:09:35.578Z,6.60
2023-03-06T23:12:23.046Z,7.50
2023-03-06T23:15:11.187Z,7.63
2023-03-06T23:17:59.116Z,6.80
2023-03-06T23:20:47.014Z,7.63
2023-03-06T23:23:34.520Z,7.23
2023-03-06T23:26:23.976Z,7.27
2023-03-06T23:29:11.454Z,7.27
2023-03-06T23:31:59.386Z,8.10
2023-03-06T23:34:48.861Z,7.70
2023-03-06T23:37:36.771Z,8.03
2023-03-06T23:40:24.716Z,8.00
2023-03-06T23:43:12.683Z,7.70
2023-03-06T23:46:00.195Z,7.30
2023-03-06T23:48:48.233Z,8.10
2023-03-06T23:51:36.109Z,6.80
2023-03-06T23:54:23.781Z,7.57
2023-03-06T23:57:11.271Z,6.83
2023-03-06T23:59:59.493Z,7.77
